Robertville, South Carolina
Current Conditions -  °F | °C
As of 3:15 AM on Friday 28 Nov 2014 (Local Time) from KJYL Reporting Station
Clear Clear  
Wind Chill: 33°   Ceiling: Unl
Heat Index: 37°   Visibility: 10mi
Dew Point: 33°   Wind: 5mph
Humidity: 86%   Direction: 320°NW
Pressure: 30.35"   Gusts: NA
Location:  32.6001°N, 81.2393°W
Report Text: KJYL 280815Z AUTO 32004KT 10SM CLR 03/00 A3035 RMK AO2 T00250003
Loading
Personal Weather Stations






























Interactive Weather Map New forecast layout! Learn more

10-Day Weather Forecast

Advertisements
Track Severe Weather on mobile